createdAt,value
2022-12-23T00:01:28.050Z,38.77
2022-12-23T00:03:58.850Z,38.63
2022-12-23T00:06:27.751Z,38.82
2022-12-23T00:08:58.827Z,38.79
2022-12-23T00:11:29.882Z,38.69
2022-12-23T00:14:21.067Z,38.84
2022-12-23T00:16:51.579Z,39.00
2022-12-23T00:19:20.024Z,39.24
2022-12-23T00:21:49.329Z,39.40
2022-12-23T00:24:17.606Z,39.00
2022-12-23T00:26:47.746Z,38.92
2022-12-23T00:29:18.754Z,39.11
2022-12-23T00:31:47.047Z,37.90
2022-12-23T00:34:15.341Z,39.08
2022-12-23T00:36:43.870Z,38.88
2022-12-23T00:39:30.806Z,38.67
2022-12-23T00:42:17.976Z,38.60
2022-12-23T00:44:46.208Z,38.88
2022-12-23T00:47:36.358Z,39.21
2022-12-23T00:50:03.836Z,38.84
2022-12-23T00:52:32.399Z,39.03
2022-12-23T00:55:00.803Z,38.68
2022-12-23T00:57:30.953Z,38.18
2022-12-23T00:59:59.289Z,38.46
2022-12-23T01:02:45.727Z,38.43
2022-12-23T01:05:37.173Z,38.49
2022-12-23T01:08:07.341Z,38.26
2022-12-23T01:10:35.949Z,38.19
2022-12-23T01:13:06.341Z,37.86
2022-12-23T01:15:34.953Z,38.26
2022-12-23T01:18:03.611Z,38.15
2022-12-23T01:20:31.784Z,38.20
2022-12-23T01:23:00.332Z,38.36
2022-12-23T01:25:28.513Z,38.20
2022-12-23T01:27:57.106Z,38.22
2022-12-23T01:30:26.833Z,37.96
2022-12-23T01:32:55.347Z,38.36
2022-12-23T01:35:23.630Z,38.08
2022-12-23T01:37:52.081Z,38.06
2022-12-23T01:40:20.442Z,37.92
2022-12-23T01:42:47.921Z,37.91
2022-12-23T01:45:21.001Z,37.39
2022-12-23T01:47:54.081Z,37.29
2022-12-23T01:50:25.553Z,37.76
2022-12-23T01:53:04.574Z,37.37
2022-12-23T01:55:39.127Z,37.76
2022-12-23T01:58:11.211Z,38.01
2022-12-23T02:00:57.923Z,38.36
2022-12-23T02:03:46.320Z,38.45
2022-12-23T02:06:36.033Z,38.19
2022-12-23T02:09:18.376Z,38.86
2022-12-23T02:11:59.361Z,38.91
2022-12-23T02:14:57.965Z,38.95
2022-12-23T02:17:29.846Z,39.51
2022-12-23T02:20:17.729Z,38.74
2022-12-23T02:23:02.090Z,38.67
2022-12-23T02:25:49.957Z,38.93
2022-12-23T02:28:33.651Z,39.03
2022-12-23T02:31:10.658Z,39.38
2022-12-23T02:33:48.921Z,39.42
2022-12-23T02:36:30.152Z,39.26
2022-12-23T02:39:01.391Z,39.98
2022-12-23T02:41:34.870Z,39.77
2022-12-23T02:44:07.140Z,40.36
2022-12-23T02:46:39.814Z,39.97
2022-12-23T02:49:11.408Z,40.43
2022-12-23T02:51:45.719Z,40.18
2022-12-23T02:54:26.291Z,39.76
2022-12-23T02:56:55.587Z,40.40
2022-12-23T02:59:26.000Z,40.11
2022-12-23T03:01:56.491Z,40.38
2022-12-23T03:04:24.895Z,40.56
2022-12-23T03:06:55.040Z,40.20
2022-12-23T03:09:26.883Z,39.90
2022-12-23T03:12:03.057Z,40.00
2022-12-23T03:14:55.167Z,39.44
2022-12-23T03:17:40.984Z,39.50
2022-12-23T03:20:15.302Z,40.40
2022-12-23T03:22:51.057Z,40.34
2022-12-23T03:25:21.708Z,40.62
2022-12-23T03:27:54.462Z,40.35
2022-12-23T03:30:24.279Z,40.58
2022-12-23T03:32:56.859Z,40.25
2022-12-23T03:35:31.810Z,40.48
2022-12-23T03:38:02.115Z,40.49
2022-12-23T03:40:35.383Z,40.55
2022-12-23T03:43:06.523Z,40.58
2022-12-23T03:45:39.772Z,40.07
2022-12-23T03:48:15.187Z,40.26
2022-12-23T03:50:44.558Z,40.78
2022-12-23T03:53:16.619Z,40.78
2022-12-23T03:55:48.417Z,40.25
2022-12-23T03:58:25.516Z,40.04
2022-12-23T04:00:59.718Z,40.35
2022-12-23T04:03:32.806Z,40.17
2022-12-23T04:06:03.482Z,40.59
2022-12-23T04:08:34.890Z,40.51
2022-12-23T04:11:03.922Z,40.73
2022-12-23T04:13:33.194Z,40.86
2022-12-23T04:16:02.097Z,40.97
2022-12-23T04:18:32.108Z,40.46
2022-12-23T04:21:00.340Z,40.79
2022-12-23T04:23:29.023Z,40.64
2022-12-23T04:25:57.312Z,41.01
2022-12-23T04:28:25.896Z,41.13
2022-12-23T04:30:54.158Z,40.97
2022-12-23T04:33:22.772Z,40.75
2022-12-23T04:35:52.374Z,40.53
2022-12-23T04:38:20.879Z,40.59
2022-12-23T04:40:49.339Z,40.71
2022-12-23T04:43:17.862Z,40.48
2022-12-23T04:45:46.268Z,40.67
2022-12-23T04:48:14.821Z,40.68
2022-12-23T04:50:43.061Z,40.57
2022-12-23T04:53:12.925Z,40.51
2022-12-23T04:55:41.254Z,40.71
2022-12-23T04:58:10.065Z,40.49
2022-12-23T05:00:40.047Z,40.52
2022-12-23T05:03:08.920Z,40.10
2022-12-23T05:05:37.345Z,40.33
2022-12-23T05:08:07.102Z,40.39
2022-12-23T05:10:36.863Z,39.99
2022-12-23T05:13:05.374Z,40.10
2022-12-23T05:15:34.132Z,40.04
2022-12-23T05:18:02.730Z,40.15
2022-12-23T05:20:31.036Z,39.75
2022-12-23T05:22:59.620Z,39.59
2022-12-23T05:25:28.257Z,39.39
2022-12-23T05:27:58.300Z,39.12
2022-12-23T05:30:26.695Z,39.17
2022-12-23T05:32:55.331Z,39.33
2022-12-23T05:35:23.604Z,39.46
2022-12-23T05:37:52.197Z,39.34
2022-12-23T05:40:23.705Z,39.32
2022-12-23T05:42:54.317Z,39.26
2022-12-23T05:45:24.110Z,38.73
2022-12-23T05:47:52.671Z,38.97
2022-12-23T05:50:20.900Z,38.86
2022-12-23T05:52:49.412Z,39.26
2022-12-23T05:55:18.014Z,39.05
2022-12-23T05:57:46.497Z,39.01
2022-12-23T06:00:17.099Z,38.90
2022-12-23T06:02:53.486Z,38.59
2022-12-23T06:05:22.920Z,38.81
2022-12-23T06:07:51.513Z,38.99
2022-12-23T06:10:21.609Z,38.66
2022-12-23T06:12:50.353Z,38.78
2022-12-23T06:15:19.995Z,38.77
2022-12-23T06:17:50.637Z,38.61
2022-12-23T06:20:20.982Z,38.81
2022-12-23T06:22:49.910Z,38.47
2022-12-23T06:25:18.208Z,38.71
2022-12-23T06:27:46.716Z,38.62
2022-12-23T06:30:15.597Z,38.49
2022-12-23T06:32:44.760Z,38.28
2022-12-23T06:35:14.334Z,38.35
2022-12-23T06:37:42.973Z,38.38
2022-12-23T06:40:12.856Z,38.02
2022-12-23T06:42:41.609Z,38.11
2022-12-23T06:45:11.122Z,38.04
2022-12-23T06:47:39.723Z,37.94
2022-12-23T06:50:09.070Z,38.05
2022-12-23T06:52:39.225Z,37.56
2022-12-23T06:55:08.216Z,37.77
2022-12-23T06:57:36.852Z,37.17
2022-12-23T07:00:05.698Z,37.67
2022-12-23T07:02:34.518Z,37.54
2022-12-23T07:05:03.117Z,37.53
2022-12-23T07:07:33.086Z,37.16
2022-12-23T07:10:02.740Z,37.13
2022-12-23T07:12:31.438Z,37.25
2022-12-23T07:15:00.104Z,37.04
2022-12-23T07:17:29.177Z,37.14
2022-12-23T07:19:57.384Z,37.14
2022-12-23T07:22:26.130Z,37.04
2022-12-23T07:24:54.405Z,37.07
2022-12-23T07:27:24.439Z,36.84
2022-12-23T07:29:52.875Z,36.96
2022-12-23T07:32:21.404Z,36.88
2022-12-23T07:34:49.968Z,36.62
2022-12-23T07:37:18.613Z,36.67
2022-12-23T07:39:47.088Z,37.10
2022-12-23T07:42:43.276Z,36.59
2022-12-23T07:45:06.555Z,36.70
2022-12-23T07:47:35.165Z,36.62
2022-12-23T07:50:03.709Z,36.61
2022-12-23T07:52:32.282Z,36.81
2022-12-23T07:55:00.742Z,36.61
2022-12-23T07:57:29.482Z,36.53
2022-12-23T07:59:58.139Z,36.27
2022-12-23T08:02:28.372Z,36.14
2022-12-23T08:04:57.734Z,36.38
2022-12-23T08:07:26.416Z,36.21
2022-12-23T08:09:55.245Z,36.30
2022-12-23T08:12:23.991Z,36.39
2022-12-23T08:14:52.862Z,36.60
2022-12-23T08:17:22.199Z,36.42
2022-12-23T08:19:52.024Z,36.27
2022-12-23T08:22:20.607Z,36.17
2022-12-23T08:24:48.964Z,36.11
2022-12-23T08:27:17.563Z,36.18
2022-12-23T08:29:45.946Z,35.81
2022-12-23T08:32:14.374Z,35.47
2022-12-23T08:34:42.747Z,35.20
2022-12-23T08:37:12.661Z,34.78
2022-12-23T08:39:41.091Z,34.79
2022-12-23T08:42:10.269Z,34.13
2022-12-23T08:44:38.559Z,33.33
2022-12-23T08:47:07.165Z,33.01
2022-12-23T08:49:36.563Z,32.93
2022-12-23T08:52:05.182Z,33.06
2022-12-23T08:54:35.089Z,33.19
2022-12-23T08:57:03.660Z,33.71
2022-12-23T08:59:31.977Z,33.87
2022-12-23T09:02:02.320Z,34.47
2022-12-23T09:04:30.669Z,35.13
2022-12-23T09:06:59.347Z,34.89
2022-12-23T09:09:27.952Z,35.29
2022-12-23T09:11:57.980Z,35.01
2022-12-23T09:14:26.343Z,34.90
2022-12-23T09:16:54.879Z,34.78
2022-12-23T09:19:23.265Z,34.75
2022-12-23T09:21:51.855Z,34.88
2022-12-23T09:24:20.158Z,34.84
2022-12-23T09:26:48.749Z,35.35
2022-12-23T09:29:18.420Z,34.76
2022-12-23T09:31:47.126Z,35.18
2022-12-23T09:34:15.464Z,35.32
2022-12-23T09:36:44.152Z,35.76
2022-12-23T09:39:12.702Z,35.40
2022-12-23T09:41:56.187Z,34.74
2022-12-23T09:44:41.821Z,34.52
2022-12-23T09:47:13.189Z,34.41
2022-12-23T09:49:47.808Z,33.86
2022-12-23T09:52:21.232Z,33.70
2022-12-23T09:54:52.963Z,33.35
2022-12-23T09:57:24.137Z,32.39
2022-12-23T10:00:02.872Z,31.17
2022-12-23T10:02:44.556Z,30.61
2022-12-23T10:05:22.035Z,29.99
2022-12-23T10:07:53.200Z,29.95
2022-12-23T10:10:29.450Z,29.23
2022-12-23T10:12:59.824Z,29.18
2022-12-23T10:15:31.695Z,28.84
2022-12-23T10:18:04.046Z,27.64
2022-12-23T10:20:39.030Z,27.15
2022-12-23T10:23:12.413Z,27.74
2022-12-23T10:25:44.825Z,28.36
2022-12-23T10:28:13.673Z,29.02
2022-12-23T10:31:23.810Z,29.62
2022-12-23T10:33:38.898Z,30.08
2022-12-23T10:36:11.983Z,30.60
2022-12-23T10:38:49.358Z,30.99
2022-12-23T10:41:27.133Z,31.54
2022-12-23T10:44:05.670Z,31.84
2022-12-23T10:46:40.714Z,31.87
2022-12-23T10:49:16.921Z,32.38
2022-12-23T10:51:47.900Z,33.30
2022-12-23T10:54:19.290Z,33.42
2022-12-23T10:56:47.992Z,33.77
2022-12-23T10:59:17.998Z,33.85
2022-12-23T11:01:48.768Z,34.00
2022-12-23T11:04:19.561Z,34.30
2022-12-23T11:07:10.656Z,33.97
2022-12-23T11:09:42.319Z,34.39
2022-12-23T11:12:12.106Z,34.53
2022-12-23T11:14:42.867Z,34.43
2022-12-23T11:17:23.353Z,34.36
2022-12-23T11:20:09.243Z,33.63
2022-12-23T11:22:38.522Z,34.67
2022-12-23T11:25:28.005Z,34.30
2022-12-23T11:27:58.541Z,35.32
2022-12-23T11:30:28.288Z,35.30
2022-12-23T11:32:58.072Z,35.23
2022-12-23T11:35:29.012Z,35.32
2022-12-23T11:37:57.751Z,35.57
2022-12-23T11:40:28.654Z,35.54
2022-12-23T11:43:02.437Z,35.03
2022-12-23T11:45:32.198Z,35.31
2022-12-23T11:48:01.933Z,35.46
2022-12-23T11:50:34.010Z,34.81
2022-12-23T11:53:06.095Z,35.49
2022-12-23T11:55:34.703Z,35.68
2022-12-23T11:58:03.999Z,35.10
2022-12-23T12:00:38.520Z,34.92
2022-12-23T12:03:08.832Z,35.21
2022-12-23T12:05:40.666Z,35.01
2022-12-23T12:08:11.937Z,35.17
2022-12-23T12:10:41.867Z,35.32
2022-12-23T12:13:23.857Z,34.66
2022-12-23T12:15:59.873Z,34.34
2022-12-23T12:18:30.040Z,35.00
2022-12-23T12:21:01.679Z,35.13
2022-12-23T12:23:38.893Z,34.74
2022-12-23T12:26:10.576Z,35.41
2022-12-23T12:28:40.615Z,35.77
2022-12-23T12:31:17.793Z,35.19
2022-12-23T12:33:50.885Z,35.34
2022-12-23T12:36:26.459Z,35.86
2022-12-23T12:38:56.158Z,35.77
2022-12-23T12:41:29.331Z,35.84
2022-12-23T12:44:03.413Z,35.42
2022-12-23T12:46:36.015Z,35.18
2022-12-23T12:49:12.404Z,34.66
2022-12-23T12:51:45.017Z,34.93
2022-12-23T12:54:19.900Z,34.70
2022-12-23T12:56:51.809Z,34.84
2022-12-23T12:59:22.801Z,35.03
2022-12-23T13:02:03.374Z,34.86
2022-12-23T13:05:08.177Z,33.93
2022-12-23T13:07:45.247Z,34.59
2022-12-23T13:10:17.982Z,34.68
2022-12-23T13:12:57.831Z,34.54
2022-12-23T13:15:31.724Z,34.74
2022-12-23T13:18:14.885Z,34.93
2022-12-23T13:20:49.591Z,35.06
2022-12-23T13:23:45.816Z,35.02
2022-12-23T13:26:16.653Z,35.30
2022-12-23T13:28:52.271Z,35.21
2022-12-23T13:31:29.464Z,35.09
2022-12-23T13:34:02.924Z,35.01
2022-12-23T13:36:42.073Z,34.70
2022-12-23T13:39:24.074Z,34.91
2022-12-23T13:41:52.858Z,33.71
2022-12-23T13:44:22.191Z,35.11
2022-12-23T13:46:58.630Z,35.45
2022-12-23T13:49:34.431Z,35.00
2022-12-23T13:52:08.417Z,34.70
2022-12-23T13:54:46.763Z,34.83
2022-12-23T13:57:25.327Z,34.98
2022-12-23T14:00:06.074Z,34.78
2022-12-23T14:03:01.026Z,34.71
2022-12-23T14:05:45.534Z,35.30
2022-12-23T14:08:28.439Z,35.13
2022-12-23T14:11:00.359Z,35.45
2022-12-23T14:13:29.929Z,34.37
2022-12-23T14:16:27.053Z,34.86
2022-12-23T14:19:24.011Z,35.24
2022-12-23T14:22:05.251Z,35.51
2022-12-23T14:25:15.379Z,35.27
2022-12-23T14:27:54.070Z,36.21
2022-12-23T14:30:26.202Z,35.98
2022-12-23T14:32:59.973Z,36.03
2022-12-23T14:35:52.839Z,36.21
2022-12-23T14:38:30.882Z,35.56
2022-12-23T14:41:40.652Z,35.23
2022-12-23T14:44:21.285Z,35.46
2022-12-23T14:46:59.098Z,36.09
2022-12-23T14:49:43.130Z,35.63
2022-12-23T14:52:54.186Z,35.43
2022-12-23T14:55:49.329Z,35.53
2022-12-23T14:58:54.897Z,35.44
2022-12-23T15:01:30.614Z,35.99
2022-12-23T15:04:01.818Z,36.25
2022-12-23T15:06:34.947Z,35.88
2022-12-23T15:09:11.010Z,36.69
2022-12-23T15:11:41.808Z,36.03
2022-12-23T15:14:18.577Z,36.42
2022-12-23T15:16:47.573Z,36.76
2022-12-23T15:19:26.272Z,36.02
2022-12-23T15:22:22.132Z,36.09
2022-12-23T15:25:01.740Z,36.96
2022-12-23T15:27:35.932Z,37.53
2022-12-23T15:30:07.542Z,36.76
2022-12-23T15:32:37.356Z,36.78
2022-12-23T15:35:22.390Z,36.31
2022-12-23T15:37:52.615Z,36.68
2022-12-23T15:40:27.108Z,36.18
2022-12-23T15:42:58.958Z,36.63
2022-12-23T15:45:37.447Z,35.93
2022-12-23T15:48:08.608Z,36.46
2022-12-23T15:50:42.089Z,36.48
2022-12-23T15:53:17.726Z,36.00
2022-12-23T15:55:46.943Z,36.67
2022-12-23T15:58:23.573Z,36.54
2022-12-23T16:00:55.895Z,36.24
2022-12-23T16:03:35.227Z,36.33
2022-12-23T16:06:12.635Z,36.29
2022-12-23T16:08:41.927Z,36.78
2022-12-23T16:11:15.763Z,36.23
2022-12-23T16:13:58.868Z,35.76
2022-12-23T16:16:40.059Z,35.64
2022-12-23T16:19:42.892Z,35.48
2022-12-23T16:22:36.861Z,35.34
2022-12-23T16:25:12.034Z,35.72
2022-12-23T16:27:42.464Z,36.06
2022-12-23T16:30:20.153Z,35.78
2022-12-23T16:32:53.277Z,35.83
2022-12-23T16:35:32.821Z,35.52
2022-12-23T16:38:11.890Z,35.52
2022-12-23T16:40:43.345Z,36.28
2022-12-23T16:43:11.775Z,36.59
2022-12-23T16:45:48.101Z,35.89
2022-12-23T16:48:26.948Z,36.07
2022-12-23T16:50:59.403Z,36.61
2022-12-23T16:53:28.913Z,36.31
2022-12-23T16:56:01.126Z,36.17
2022-12-23T16:58:33.414Z,36.54
2022-12-23T17:01:03.111Z,36.28
2022-12-23T17:03:36.636Z,36.43
2022-12-23T17:06:06.967Z,36.23
2022-12-23T17:08:35.849Z,36.53
2022-12-23T17:11:10.806Z,36.30
2022-12-23T17:13:40.250Z,36.14
2022-12-23T17:16:15.783Z,36.03
2022-12-23T17:18:45.695Z,35.93
2022-12-23T17:21:20.403Z,36.04
2022-12-23T17:23:57.763Z,36.05
2022-12-23T17:26:34.669Z,36.17
2022-12-23T17:29:04.930Z,36.18
2022-12-23T17:31:42.000Z,36.42
2022-12-23T17:34:17.811Z,36.20
2022-12-23T17:36:50.554Z,36.50
2022-12-23T17:39:22.097Z,36.33
2022-12-23T17:41:58.836Z,36.75
2022-12-23T17:44:29.695Z,36.55
2022-12-23T17:47:00.864Z,36.53
2022-12-23T17:49:31.232Z,36.34
2022-12-23T17:52:00.854Z,36.25
2022-12-23T17:54:29.782Z,36.54
2022-12-23T17:57:04.095Z,36.29
2022-12-23T17:59:35.007Z,36.61
2022-12-23T18:02:06.603Z,36.11
2022-12-23T18:04:36.903Z,36.33
2022-12-23T18:07:18.928Z,36.34
2022-12-23T18:10:01.214Z,36.10
2022-12-23T18:12:36.262Z,36.34
2022-12-23T18:15:08.773Z,36.17
2022-12-23T18:17:37.930Z,36.82
2022-12-23T18:20:11.449Z,36.07
2022-12-23T18:22:40.097Z,36.57
2022-12-23T18:25:15.911Z,36.01
2022-12-23T18:27:44.513Z,36.79
2022-12-23T18:30:13.215Z,36.62
2022-12-23T18:32:42.588Z,36.39
2022-12-23T18:35:30.996Z,35.57
2022-12-23T18:38:00.590Z,36.64
2022-12-23T18:40:33.015Z,37.04
2022-12-23T18:43:02.325Z,36.73
2022-12-23T18:45:34.649Z,36.58
2022-12-23T18:48:07.485Z,36.59
2022-12-23T18:50:39.259Z,36.59
2022-12-23T18:53:09.132Z,36.39
2022-12-23T18:55:37.717Z,36.41
2022-12-23T18:58:06.179Z,36.16
2022-12-23T19:00:34.687Z,36.67
2022-12-23T19:03:03.414Z,36.07
2022-12-23T19:05:33.839Z,36.00
2022-12-23T19:08:03.897Z,35.91
2022-12-23T19:10:34.721Z,36.30
2022-12-23T19:13:03.296Z,36.31
2022-12-23T19:15:33.035Z,36.31
2022-12-23T19:18:01.589Z,36.37
2022-12-23T19:20:29.997Z,36.65
2022-12-23T19:22:58.575Z,36.31
2022-12-23T19:25:28.361Z,36.58
2022-12-23T19:27:57.405Z,36.74
2022-12-23T19:30:25.988Z,36.82
2022-12-23T19:32:54.577Z,36.75
2022-12-23T19:35:22.976Z,36.77
2022-12-23T19:37:51.658Z,36.51
2022-12-23T19:40:20.820Z,36.85
2022-12-23T19:42:50.827Z,36.19
2022-12-23T19:45:19.322Z,36.57
2022-12-23T19:47:48.017Z,36.34
2022-12-23T19:50:16.552Z,36.03
2022-12-23T19:52:45.150Z,36.46
2022-12-23T19:55:15.828Z,36.38
2022-12-23T19:57:44.335Z,36.29
2022-12-23T20:00:16.107Z,35.86
2022-12-23T20:02:44.738Z,35.86
2022-12-23T20:05:13.133Z,35.68
2022-12-23T20:07:41.739Z,36.17
2022-12-23T20:10:11.008Z,36.64
2022-12-23T20:12:40.568Z,36.26
2022-12-23T20:15:10.379Z,36.54
2022-12-23T20:17:40.614Z,35.95
2022-12-23T20:20:09.972Z,36.18
2022-12-23T20:22:38.907Z,36.18
2022-12-23T20:25:08.045Z,36.55
2022-12-23T20:27:38.858Z,36.37
2022-12-23T20:30:08.445Z,36.11
2022-12-23T20:32:37.135Z,36.14
2022-12-23T20:35:08.167Z,36.25
2022-12-23T20:37:36.891Z,36.06
2022-12-23T20:40:07.400Z,36.39
2022-12-23T20:42:36.659Z,36.06
2022-12-23T20:45:05.530Z,36.50
2022-12-23T20:47:34.143Z,36.24
2022-12-23T20:50:02.387Z,35.98
2022-12-23T20:52:32.836Z,36.01
2022-12-23T20:55:01.739Z,35.99
2022-12-23T20:57:31.439Z,36.01
2022-12-23T21:00:00.615Z,36.10
2022-12-23T21:02:29.311Z,35.95
2022-12-23T21:04:57.620Z,35.87
2022-12-23T21:07:26.930Z,36.15
2022-12-23T21:09:56.616Z,35.76
2022-12-23T21:12:25.163Z,35.68
2022-12-23T21:14:53.425Z,35.44
2022-12-23T21:17:23.964Z,35.29
2022-12-23T21:19:52.183Z,35.32
2022-12-23T21:22:20.932Z,34.77
2022-12-23T21:24:49.131Z,35.03
2022-12-23T21:27:19.053Z,34.68
2022-12-23T21:29:47.253Z,35.08
2022-12-23T21:32:15.826Z,35.04
2022-12-23T21:34:44.146Z,34.56
2022-12-23T21:37:13.304Z,35.08
2022-12-23T21:39:42.155Z,34.61
2022-12-23T21:42:11.259Z,34.69
2022-12-23T21:44:42.943Z,34.45
2022-12-23T21:47:18.648Z,34.13
2022-12-23T21:49:49.270Z,34.76
2022-12-23T21:52:20.216Z,34.13
2022-12-23T21:54:48.537Z,34.46
2022-12-23T21:57:17.102Z,34.53
2022-12-23T21:59:46.838Z,34.45
2022-12-23T22:02:17.503Z,34.26
2022-12-23T22:04:45.875Z,34.51
2022-12-23T22:07:14.409Z,34.39
2022-12-23T22:09:42.609Z,34.36
2022-12-23T22:12:11.124Z,34.49
2022-12-23T22:14:39.676Z,34.18
2022-12-23T22:17:09.761Z,33.90
2022-12-23T22:19:38.102Z,33.88
2022-12-23T22:22:06.678Z,34.23
2022-12-23T22:24:34.874Z,34.00
2022-12-23T22:27:03.621Z,34.04
2022-12-23T22:29:32.067Z,34.25
2022-12-23T22:32:00.715Z,34.27
2022-12-23T22:34:30.365Z,34.31
2022-12-23T22:36:58.899Z,34.51
2022-12-23T22:39:27.288Z,34.67
2022-12-23T22:41:55.843Z,34.32
2022-12-23T22:44:24.073Z,34.63
2022-12-23T22:46:52.593Z,34.75
2022-12-23T22:49:21.048Z,35.22
2022-12-23T22:51:51.013Z,35.07
2022-12-23T22:54:19.543Z,35.38
2022-12-23T22:56:48.099Z,35.46
2022-12-23T22:59:21.285Z,34.84
2022-12-23T23:01:50.078Z,35.56
2022-12-23T23:04:18.718Z,35.63
2022-12-23T23:06:47.442Z,35.83
2022-12-23T23:09:18.921Z,35.64
2022-12-23T23:11:47.621Z,35.93
2022-12-23T23:14:16.050Z,35.92
2022-12-23T23:16:44.795Z,36.28
2022-12-23T23:19:14.443Z,36.47
2022-12-23T23:21:43.240Z,36.42
2022-12-23T23:24:12.040Z,36.53
2022-12-23T23:26:41.996Z,36.29
2022-12-23T23:29:10.291Z,36.85
2022-12-23T23:31:42.442Z,37.43
2022-12-23T23:34:11.282Z,37.35
2022-12-23T23:36:40.112Z,37.58
2022-12-23T23:39:08.459Z,38.16
2022-12-23T23:41:37.136Z,38.46
2022-12-23T23:44:06.789Z,38.60
2022-12-23T23:46:35.916Z,38.82
2022-12-23T23:49:04.406Z,39.12
2022-12-23T23:51:33.016Z,39.03
2022-12-23T23:54:01.222Z,39.13
2022-12-23T23:56:35.827Z,38.81
2022-12-23T23:59:08.416Z,38.95
